sensor_id;sensor_type;location;lat;lon;timestamp;P1;durP1;ratioP1;P2;durP2;ratioP2
19364;SDS011;9818;48.382;10.850;2023-09-07T00:01:06;5.67;;;3.93;;
19364;SDS011;9818;48.382;10.850;2023-09-07T00:03:35;5.27;;;4.00;;
19364;SDS011;9818;48.382;10.850;2023-09-07T00:06:06;5.47;;;3.83;;
19364;SDS011;9818;48.382;10.850;2023-09-07T00:08:35;4.57;;;3.70;;
19364;SDS011;9818;48.382;10.850;2023-09-07T00:11:03;5.77;;;3.63;;
19364;SDS011;9818;48.382;10.850;2023-09-07T00:13:35;4.53;;;3.87;;
19364;SDS011;9818;48.382;10.850;2023-09-07T00:16:07;4.57;;;4.10;;
19364;SDS011;9818;48.382;10.850;2023-09-07T00:18:36;4.07;;;3.67;;
19364;SDS011;9818;48.382;10.850;2023-09-07T00:21:05;4.00;;;3.70;;
19364;SDS011;9818;48.382;10.850;2023-09-07T00:23:33;6.20;;;3.63;;
19364;SDS011;9818;48.382;10.850;2023-09-07T00:26:02;5.27;;;4.00;;
19364;SDS011;9818;48.382;10.850;2023-09-07T00:28:31;4.07;;;3.67;;
19364;SDS011;9818;48.382;10.850;2023-09-07T00:30:59;4.53;;;4.13;;
19364;SDS011;9818;48.382;10.850;2023-09-07T00:33:31;4.97;;;4.00;;
19364;SDS011;9818;48.382;10.850;2023-09-07T00:36:01;4.00;;;3.60;;
19364;SDS011;9818;48.382;10.850;2023-09-07T00:38:30;4.10;;;3.57;;
19364;SDS011;9818;48.382;10.850;2023-09-07T00:40:59;5.83;;;4.13;;
19364;SDS011;9818;48.382;10.850;2023-09-07T00:43:27;4.57;;;4.10;;
19364;SDS011;9818;48.382;10.850;2023-09-07T00:45:56;4.43;;;3.73;;
19364;SDS011;9818;48.382;10.850;2023-09-07T00:48:24;4.27;;;3.80;;
19364;SDS011;9818;48.382;10.850;2023-09-07T00:50:56;4.60;;;3.97;;
19364;SDS011;9818;48.382;10.850;2023-09-07T00:53:25;4.30;;;3.60;;
19364;SDS011;9818;48.382;10.850;2023-09-07T00:55:54;7.07;;;4.10;;
19364;SDS011;9818;48.382;10.850;2023-09-07T00:58:24;4.43;;;4.00;;
19364;SDS011;9818;48.382;10.850;2023-09-07T01:00:53;4.80;;;4.10;;
19364;SDS011;9818;48.382;10.850;2023-09-07T01:03:22;6.40;;;4.77;;
19364;SDS011;9818;48.382;10.850;2023-09-07T01:05:52;5.03;;;4.10;;
19364;SDS011;9818;48.382;10.850;2023-09-07T01:08:32;4.57;;;3.87;;
19364;SDS011;9818;48.382;10.850;2023-09-07T01:11:12;4.40;;;4.00;;
19364;SDS011;9818;48.382;10.850;2023-09-07T01:13:42;5.10;;;4.27;;
19364;SDS011;9818;48.382;10.850;2023-09-07T01:16:10;5.97;;;4.07;;
19364;SDS011;9818;48.382;10.850;2023-09-07T01:18:41;4.97;;;4.33;;
19364;SDS011;9818;48.382;10.850;2023-09-07T01:21:13;5.03;;;4.13;;
19364;SDS011;9818;48.382;10.850;2023-09-07T01:23:44;4.53;;;4.07;;
19364;SDS011;9818;48.382;10.850;2023-09-07T01:26:14;4.80;;;4.30;;
19364;SDS011;9818;48.382;10.850;2023-09-07T01:28:43;5.50;;;4.33;;
19364;SDS011;9818;48.382;10.850;2023-09-07T01:31:13;4.47;;;4.07;;
19364;SDS011;9818;48.382;10.850;2023-09-07T01:33:41;4.73;;;4.03;;
19364;SDS011;9818;48.382;10.850;2023-09-07T01:36:10;4.83;;;4.00;;
19364;SDS011;9818;48.382;10.850;2023-09-07T01:38:39;4.33;;;3.97;;
19364;SDS011;9818;48.382;10.850;2023-09-07T01:41:10;4.50;;;4.07;;
19364;SDS011;9818;48.382;10.850;2023-09-07T01:43:39;4.30;;;3.90;;
19364;SDS011;9818;48.382;10.850;2023-09-07T01:46:07;4.27;;;3.33;;
19364;SDS011;9818;48.382;10.850;2023-09-07T01:48:36;4.57;;;4.07;;
19364;SDS011;9818;48.382;10.850;2023-09-07T01:51:07;4.10;;;3.70;;
19364;SDS011;9818;48.382;10.850;2023-09-07T01:53:35;4.57;;;3.90;;
19364;SDS011;9818;48.382;10.850;2023-09-07T01:56:04;4.40;;;4.00;;
19364;SDS011;9818;48.382;10.850;2023-09-07T01:58:35;4.70;;;4.17;;
19364;SDS011;9818;48.382;10.850;2023-09-07T02:01:06;4.43;;;4.03;;
19364;SDS011;9818;48.382;10.850;2023-09-07T02:03:34;4.57;;;3.83;;
19364;SDS011;9818;48.382;10.850;2023-09-07T02:06:03;4.77;;;3.80;;
19364;SDS011;9818;48.382;10.850;2023-09-07T02:08:32;6.23;;;4.40;;
19364;SDS011;9818;48.382;10.850;2023-09-07T02:11:00;4.40;;;4.00;;
19364;SDS011;9818;48.382;10.850;2023-09-07T02:13:29;5.30;;;4.00;;
19364;SDS011;9818;48.382;10.850;2023-09-07T02:16:02;4.77;;;4.17;;
19364;SDS011;9818;48.382;10.850;2023-09-07T02:18:31;4.53;;;4.07;;
19364;SDS011;9818;48.382;10.850;2023-09-07T02:21:01;4.27;;;3.87;;
19364;SDS011;9818;48.382;10.850;2023-09-07T02:23:30;7.03;;;4.20;;
19364;SDS011;9818;48.382;10.850;2023-09-07T02:25:59;4.20;;;3.80;;
19364;SDS011;9818;48.382;10.850;2023-09-07T02:28:28;4.20;;;3.80;;
19364;SDS011;9818;48.382;10.850;2023-09-07T02:31:04;5.00;;;4.47;;
19364;SDS011;9818;48.382;10.850;2023-09-07T02:33:34;4.57;;;4.17;;
19364;SDS011;9818;48.382;10.850;2023-09-07T02:36:03;4.93;;;3.80;;
19364;SDS011;9818;48.382;10.850;2023-09-07T02:38:32;4.70;;;4.30;;
19364;SDS011;9818;48.382;10.850;2023-09-07T02:41:01;4.90;;;4.40;;
19364;SDS011;9818;48.382;10.850;2023-09-07T02:43:30;6.33;;;4.67;;
19364;SDS011;9818;48.382;10.850;2023-09-07T02:45:58;4.40;;;4.00;;
19364;SDS011;9818;48.382;10.850;2023-09-07T02:48:30;8.30;;;5.10;;
19364;SDS011;9818;48.382;10.850;2023-09-07T02:50:58;5.53;;;4.47;;
19364;SDS011;9818;48.382;10.850;2023-09-07T02:53:27;5.53;;;5.00;;
19364;SDS011;9818;48.382;10.850;2023-09-07T02:55:56;4.80;;;4.23;;
19364;SDS011;9818;48.382;10.850;2023-09-07T02:58:27;5.50;;;4.40;;
19364;SDS011;9818;48.382;10.850;2023-09-07T03:00:55;5.33;;;4.60;;
19364;SDS011;9818;48.382;10.850;2023-09-07T03:03:21;4.97;;;4.47;;
19364;SDS011;9818;48.382;10.850;2023-09-07T03:05:53;5.87;;;4.97;;
19364;SDS011;9818;48.382;10.850;2023-09-07T03:08:21;4.93;;;4.33;;
19364;SDS011;9818;48.382;10.850;2023-09-07T03:10:50;5.73;;;4.67;;
19364;SDS011;9818;48.382;10.850;2023-09-07T03:13:19;5.17;;;4.17;;
19364;SDS011;9818;48.382;10.850;2023-09-07T03:15:47;5.40;;;4.90;;
19364;SDS011;9818;48.382;10.850;2023-09-07T03:18:16;5.30;;;4.80;;
19364;SDS011;9818;48.382;10.850;2023-09-07T03:20:45;4.70;;;4.30;;
19364;SDS011;9818;48.382;10.850;2023-09-07T03:23:16;4.80;;;4.30;;
19364;SDS011;9818;48.382;10.850;2023-09-07T03:25:45;5.03;;;4.53;;
19364;SDS011;9818;48.382;10.850;2023-09-07T03:28:14;5.53;;;5.03;;
19364;SDS011;9818;48.382;10.850;2023-09-07T03:30:42;5.47;;;4.93;;
19364;SDS011;9818;48.382;10.850;2023-09-07T03:33:11;5.00;;;4.50;;
19364;SDS011;9818;48.382;10.850;2023-09-07T03:35:40;5.30;;;4.80;;
19364;SDS011;9818;48.382;10.850;2023-09-07T03:38:08;5.50;;;5.00;;
19364;SDS011;9818;48.382;10.850;2023-09-07T03:40:40;4.90;;;4.40;;
19364;SDS011;9818;48.382;10.850;2023-09-07T03:43:08;6.37;;;4.93;;
19364;SDS011;9818;48.382;10.850;2023-09-07T03:45:37;5.30;;;4.57;;
19364;SDS011;9818;48.382;10.850;2023-09-07T03:48:06;5.97;;;4.83;;
19364;SDS011;9818;48.382;10.850;2023-09-07T03:50:35;6.60;;;4.77;;
19364;SDS011;9818;48.382;10.850;2023-09-07T03:53:03;6.73;;;4.93;;
19364;SDS011;9818;48.382;10.850;2023-09-07T03:55:42;5.20;;;4.43;;
19364;SDS011;9818;48.382;10.850;2023-09-07T03:58:11;4.67;;;4.27;;
19364;SDS011;9818;48.382;10.850;2023-09-07T04:00:40;6.30;;;4.73;;
19364;SDS011;9818;48.382;10.850;2023-09-07T04:03:09;6.07;;;5.20;;
19364;SDS011;9818;48.382;10.850;2023-09-07T04:05:38;5.03;;;4.53;;
19364;SDS011;9818;48.382;10.850;2023-09-07T04:08:06;6.93;;;4.83;;
19364;SDS011;9818;48.382;10.850;2023-09-07T04:10:36;6.93;;;4.70;;
19364;SDS011;9818;48.382;10.850;2023-09-07T04:13:08;4.87;;;4.47;;
19364;SDS011;9818;48.382;10.850;2023-09-07T04:15:41;6.77;;;4.73;;
19364;SDS011;9818;48.382;10.850;2023-09-07T04:18:10;6.13;;;4.23;;
19364;SDS011;9818;48.382;10.850;2023-09-07T04:20:40;6.73;;;4.60;;
19364;SDS011;9818;48.382;10.850;2023-09-07T04:23:09;5.17;;;4.47;;
19364;SDS011;9818;48.382;10.850;2023-09-07T04:25:37;6.70;;;5.30;;
19364;SDS011;9818;48.382;10.850;2023-09-07T04:28:09;6.27;;;5.00;;
19364;SDS011;9818;48.382;10.850;2023-09-07T04:30:38;7.53;;;5.00;;
19364;SDS011;9818;48.382;10.850;2023-09-07T04:33:07;6.47;;;5.07;;
19364;SDS011;9818;48.382;10.850;2023-09-07T04:35:36;7.33;;;4.90;;
19364;SDS011;9818;48.382;10.850;2023-09-07T04:38:05;8.00;;;5.43;;
19364;SDS011;9818;48.382;10.850;2023-09-07T04:40:34;7.17;;;4.93;;
19364;SDS011;9818;48.382;10.850;2023-09-07T04:43:03;7.63;;;5.17;;
19364;SDS011;9818;48.382;10.850;2023-09-07T04:45:34;6.10;;;4.97;;
19364;SDS011;9818;48.382;10.850;2023-09-07T04:48:03;8.60;;;5.47;;
19364;SDS011;9818;48.382;10.850;2023-09-07T04:50:32;7.33;;;4.77;;
19364;SDS011;9818;48.382;10.850;2023-09-07T04:53:01;10.50;;;5.17;;
19364;SDS011;9818;48.382;10.850;2023-09-07T04:55:30;6.10;;;5.00;;
19364;SDS011;9818;48.382;10.850;2023-09-07T04:57:59;6.63;;;5.03;;
19364;SDS011;9818;48.382;10.850;2023-09-07T05:00:27;5.47;;;4.87;;
19364;SDS011;9818;48.382;10.850;2023-09-07T05:02:59;8.77;;;5.30;;
19364;SDS011;9818;48.382;10.850;2023-09-07T05:05:27;7.10;;;5.10;;
19364;SDS011;9818;48.382;10.850;2023-09-07T05:07:56;5.53;;;5.00;;
19364;SDS011;9818;48.382;10.850;2023-09-07T05:10:24;6.27;;;5.23;;
19364;SDS011;9818;48.382;10.850;2023-09-07T05:12:55;5.23;;;4.73;;
19364;SDS011;9818;48.382;10.850;2023-09-07T05:15:23;6.10;;;4.90;;
19364;SDS011;9818;48.382;10.850;2023-09-07T05:17:52;8.83;;;5.40;;
19364;SDS011;9818;48.382;10.850;2023-09-07T05:20:23;7.77;;;5.23;;
19364;SDS011;9818;48.382;10.850;2023-09-07T05:22:52;7.90;;;5.13;;
19364;SDS011;9818;48.382;10.850;2023-09-07T05:25:21;8.80;;;5.80;;
19364;SDS011;9818;48.382;10.850;2023-09-07T05:27:50;6.80;;;5.20;;
19364;SDS011;9818;48.382;10.850;2023-09-07T05:30:19;5.80;;;5.23;;
19364;SDS011;9818;48.382;10.850;2023-09-07T05:32:48;7.00;;;5.40;;
19364;SDS011;9818;48.382;10.850;2023-09-07T05:35:16;9.30;;;5.53;;
19364;SDS011;9818;48.382;10.850;2023-09-07T05:37:48;6.50;;;5.17;;
19364;SDS011;9818;48.382;10.850;2023-09-07T05:40:17;5.43;;;4.90;;
19364;SDS011;9818;48.382;10.850;2023-09-07T05:42:45;8.70;;;5.27;;
19364;SDS011;9818;48.382;10.850;2023-09-07T05:45:14;6.30;;;5.00;;
19364;SDS011;9818;48.382;10.850;2023-09-07T05:47:43;6.63;;;5.20;;
19364;SDS011;9818;48.382;10.850;2023-09-07T05:50:11;6.90;;;5.83;;
19364;SDS011;9818;48.382;10.850;2023-09-07T05:52:40;6.10;;;5.50;;
19364;SDS011;9818;48.382;10.850;2023-09-07T05:55:11;6.47;;;5.50;;
19364;SDS011;9818;48.382;10.850;2023-09-07T05:57:40;5.93;;;5.20;;
19364;SDS011;9818;48.382;10.850;2023-09-07T06:00:10;7.50;;;5.87;;
19364;SDS011;9818;48.382;10.850;2023-09-07T06:02:40;7.70;;;5.47;;
19364;SDS011;9818;48.382;10.850;2023-09-07T06:05:09;7.47;;;6.13;;
19364;SDS011;9818;48.382;10.850;2023-09-07T06:07:38;6.27;;;5.67;;
19364;SDS011;9818;48.382;10.850;2023-09-07T06:10:07;6.70;;;5.47;;
19364;SDS011;9818;48.382;10.850;2023-09-07T06:12:38;7.17;;;5.83;;
19364;SDS011;9818;48.382;10.850;2023-09-07T06:15:07;7.63;;;6.43;;
19364;SDS011;9818;48.382;10.850;2023-09-07T06:17:37;6.93;;;5.27;;
19364;SDS011;9818;48.382;10.850;2023-09-07T06:20:06;7.87;;;6.00;;
19364;SDS011;9818;48.382;10.850;2023-09-07T06:22:36;9.13;;;6.07;;
19364;SDS011;9818;48.382;10.850;2023-09-07T06:25:04;8.33;;;5.80;;
19364;SDS011;9818;48.382;10.850;2023-09-07T06:27:33;7.77;;;6.03;;
19364;SDS011;9818;48.382;10.850;2023-09-07T06:30:06;6.27;;;5.63;;
19364;SDS011;9818;48.382;10.850;2023-09-07T06:32:36;6.60;;;5.90;;
19364;SDS011;9818;48.382;10.850;2023-09-07T06:35:05;7.83;;;6.10;;
19364;SDS011;9818;48.382;10.850;2023-09-07T06:37:35;7.97;;;6.03;;
19364;SDS011;9818;48.382;10.850;2023-09-07T06:40:06;7.00;;;6.10;;
19364;SDS011;9818;48.382;10.850;2023-09-07T06:42:38;7.40;;;5.90;;
19364;SDS011;9818;48.382;10.850;2023-09-07T06:45:10;5.93;;;5.33;;
19364;SDS011;9818;48.382;10.850;2023-09-07T06:47:39;7.67;;;6.00;;
19364;SDS011;9818;48.382;10.850;2023-09-07T06:50:07;6.33;;;5.53;;
19364;SDS011;9818;48.382;10.850;2023-09-07T06:52:36;8.40;;;5.70;;
19364;SDS011;9818;48.382;10.850;2023-09-07T06:55:05;7.17;;;5.73;;
19364;SDS011;9818;48.382;10.850;2023-09-07T06:57:34;8.40;;;5.90;;
19364;SDS011;9818;48.382;10.850;2023-09-07T07:00:03;6.60;;;5.40;;
19364;SDS011;9818;48.382;10.850;2023-09-07T07:02:36;6.67;;;5.17;;
19364;SDS011;9818;48.382;10.850;2023-09-07T07:05:05;5.90;;;5.30;;
19364;SDS011;9818;48.382;10.850;2023-09-07T07:07:34;6.13;;;5.53;;
19364;SDS011;9818;48.382;10.850;2023-09-07T07:10:03;6.50;;;5.70;;
19364;SDS011;9818;48.382;10.850;2023-09-07T07:12:33;6.47;;;5.10;;
19364;SDS011;9818;48.382;10.850;2023-09-07T07:15:03;7.37;;;5.33;;
19364;SDS011;9818;48.382;10.850;2023-09-07T07:17:35;5.73;;;4.97;;
19364;SDS011;9818;48.382;10.850;2023-09-07T07:20:05;5.90;;;5.27;;
19364;SDS011;9818;48.382;10.850;2023-09-07T07:22:34;7.20;;;5.20;;
19364;SDS011;9818;48.382;10.850;2023-09-07T07:25:03;6.33;;;5.73;;
19364;SDS011;9818;48.382;10.850;2023-09-07T07:27:32;5.17;;;4.67;;
19364;SDS011;9818;48.382;10.850;2023-09-07T07:30:01;5.80;;;4.97;;
19364;SDS011;9818;48.382;10.850;2023-09-07T07:32:30;6.43;;;5.27;;
19364;SDS011;9818;48.382;10.850;2023-09-07T07:35:01;7.23;;;5.60;;
19364;SDS011;9818;48.382;10.850;2023-09-07T07:37:31;6.50;;;5.90;;
19364;SDS011;9818;48.382;10.850;2023-09-07T07:40:00;7.00;;;5.33;;
19364;SDS011;9818;48.382;10.850;2023-09-07T07:42:29;7.47;;;5.30;;
19364;SDS011;9818;48.382;10.850;2023-09-07T07:44:58;6.53;;;5.43;;
19364;SDS011;9818;48.382;10.850;2023-09-07T07:47:27;6.27;;;4.77;;
19364;SDS011;9818;48.382;10.850;2023-09-07T07:49:56;8.20;;;5.60;;
19364;SDS011;9818;48.382;10.850;2023-09-07T07:52:27;5.93;;;5.40;;
19364;SDS011;9818;48.382;10.850;2023-09-07T07:54:56;5.70;;;5.10;;
19364;SDS011;9818;48.382;10.850;2023-09-07T07:57:24;6.90;;;5.17;;
19364;SDS011;9818;48.382;10.850;2023-09-07T07:59:53;6.23;;;5.63;;
19364;SDS011;9818;48.382;10.850;2023-09-07T08:02:23;5.80;;;5.20;;
19364;SDS011;9818;48.382;10.850;2023-09-07T08:04:52;5.57;;;5.00;;
19364;SDS011;9818;48.382;10.850;2023-09-07T08:07:20;5.70;;;4.97;;
19364;SDS011;9818;48.382;10.850;2023-09-07T08:09:52;6.37;;;5.63;;
19364;SDS011;9818;48.382;10.850;2023-09-07T08:12:20;6.63;;;5.53;;
19364;SDS011;9818;48.382;10.850;2023-09-07T08:14:49;5.83;;;5.13;;
19364;SDS011;9818;48.382;10.850;2023-09-07T08:17:18;6.00;;;5.40;;
19364;SDS011;9818;48.382;10.850;2023-09-07T08:19:48;7.07;;;5.80;;
19364;SDS011;9818;48.382;10.850;2023-09-07T08:22:21;7.10;;;6.40;;
19364;SDS011;9818;48.382;10.850;2023-09-07T08:24:52;6.90;;;5.90;;
19364;SDS011;9818;48.382;10.850;2023-09-07T08:27:22;6.87;;;6.17;;
19364;SDS011;9818;48.382;10.850;2023-09-07T08:29:50;7.93;;;5.97;;
19364;SDS011;9818;48.382;10.850;2023-09-07T08:32:19;6.47;;;5.30;;
19364;SDS011;9818;48.382;10.850;2023-09-07T08:34:48;6.87;;;5.57;;
19364;SDS011;9818;48.382;10.850;2023-09-07T08:37:21;6.17;;;5.57;;
19364;SDS011;9818;48.382;10.850;2023-09-07T08:39:53;6.00;;;4.90;;
19364;SDS011;9818;48.382;10.850;2023-09-07T08:42:23;6.43;;;5.03;;
19364;SDS011;9818;48.382;10.850;2023-09-07T08:44:52;6.00;;;5.37;;
19364;SDS011;9818;48.382;10.850;2023-09-07T08:47:25;5.67;;;5.10;;
19364;SDS011;9818;48.382;10.850;2023-09-07T08:49:57;6.77;;;6.03;;
19364;SDS011;9818;48.382;10.850;2023-09-07T08:52:26;6.20;;;5.60;;
19364;SDS011;9818;48.382;10.850;2023-09-07T08:54:57;6.20;;;5.23;;
19364;SDS011;9818;48.382;10.850;2023-09-07T08:57:29;5.83;;;5.00;;
19364;SDS011;9818;48.382;10.850;2023-09-07T08:59:59;5.90;;;5.30;;
19364;SDS011;9818;48.382;10.850;2023-09-07T09:02:33;6.40;;;5.60;;
19364;SDS011;9818;48.382;10.850;2023-09-07T09:05:02;6.27;;;5.53;;
19364;SDS011;9818;48.382;10.850;2023-09-07T09:07:32;6.07;;;5.30;;
19364;SDS011;9818;48.382;10.850;2023-09-07T09:10:07;7.80;;;5.77;;
19364;SDS011;9818;48.382;10.850;2023-09-07T09:12:44;5.93;;;5.33;;
19364;SDS011;9818;48.382;10.850;2023-09-07T09:15:13;7.03;;;5.80;;
19364;SDS011;9818;48.382;10.850;2023-09-07T09:17:43;5.87;;;5.20;;
19364;SDS011;9818;48.382;10.850;2023-09-07T09:20:21;5.77;;;5.23;;
19364;SDS011;9818;48.382;10.850;2023-09-07T09:22:52;5.73;;;5.13;;
19364;SDS011;9818;48.382;10.850;2023-09-07T09:25:24;5.67;;;5.17;;
19364;SDS011;9818;48.382;10.850;2023-09-07T09:27:52;6.07;;;5.33;;
19364;SDS011;9818;48.382;10.850;2023-09-07T09:30:21;7.03;;;5.03;;
19364;SDS011;9818;48.382;10.850;2023-09-07T09:32:50;5.97;;;5.37;;
19364;SDS011;9818;48.382;10.850;2023-09-07T09:35:19;6.27;;;5.50;;
19364;SDS011;9818;48.382;10.850;2023-09-07T09:37:48;6.10;;;5.50;;
19364;SDS011;9818;48.382;10.850;2023-09-07T09:40:17;6.57;;;5.13;;
19364;SDS011;9818;48.382;10.850;2023-09-07T09:42:49;5.37;;;4.87;;
19364;SDS011;9818;48.382;10.850;2023-09-07T09:45:22;7.10;;;5.40;;
19364;SDS011;9818;48.382;10.850;2023-09-07T09:47:51;5.60;;;5.10;;
19364;SDS011;9818;48.382;10.850;2023-09-07T09:50:25;6.67;;;5.67;;
19364;SDS011;9818;48.382;10.850;2023-09-07T09:52:54;6.30;;;5.70;;
19364;SDS011;9818;48.382;10.850;2023-09-07T09:55:24;5.90;;;5.40;;
19364;SDS011;9818;48.382;10.850;2023-09-07T09:57:55;5.87;;;5.37;;
19364;SDS011;9818;48.382;10.850;2023-09-07T10:00:24;6.30;;;5.63;;
19364;SDS011;9818;48.382;10.850;2023-09-07T10:03:00;6.87;;;5.10;;
19364;SDS011;9818;48.382;10.850;2023-09-07T10:05:31;7.50;;;5.80;;
19364;SDS011;9818;48.382;10.850;2023-09-07T10:08:01;5.97;;;5.20;;
19364;SDS011;9818;48.382;10.850;2023-09-07T10:10:36;6.67;;;5.60;;
19364;SDS011;9818;48.382;10.850;2023-09-07T10:13:08;6.00;;;5.40;;
19364;SDS011;9818;48.382;10.850;2023-09-07T10:15:37;6.30;;;5.53;;
19364;SDS011;9818;48.382;10.850;2023-09-07T10:18:06;6.23;;;5.63;;
19364;SDS011;9818;48.382;10.850;2023-09-07T10:20:50;5.90;;;5.33;;
19364;SDS011;9818;48.382;10.850;2023-09-07T10:23:21;5.63;;;5.00;;
19364;SDS011;9818;48.382;10.850;2023-09-07T10:25:51;6.30;;;5.37;;
19364;SDS011;9818;48.382;10.850;2023-09-07T10:28:24;6.73;;;5.40;;
19364;SDS011;9818;48.382;10.850;2023-09-07T10:31:00;5.97;;;5.37;;
19364;SDS011;9818;48.382;10.850;2023-09-07T10:33:31;6.10;;;5.20;;
19364;SDS011;9818;48.382;10.850;2023-09-07T10:36:01;6.33;;;5.20;;
19364;SDS011;9818;48.382;10.850;2023-09-07T10:38:30;6.10;;;5.50;;
19364;SDS011;9818;48.382;10.850;2023-09-07T10:41:00;5.97;;;5.43;;
19364;SDS011;9818;48.382;10.850;2023-09-07T10:43:33;5.93;;;5.37;;
19364;SDS011;9818;48.382;10.850;2023-09-07T10:46:02;7.77;;;5.47;;
19364;SDS011;9818;48.382;10.850;2023-09-07T10:48:30;5.37;;;4.87;;
19364;SDS011;9818;48.382;10.850;2023-09-07T10:51:01;6.60;;;5.00;;
19364;SDS011;9818;48.382;10.850;2023-09-07T10:53:31;5.60;;;4.87;;
19364;SDS011;9818;48.382;10.850;2023-09-07T10:56:02;5.90;;;5.30;;
19364;SDS011;9818;48.382;10.850;2023-09-07T10:58:35;7.20;;;5.30;;
19364;SDS011;9818;48.382;10.850;2023-09-07T11:01:07;10.03;;;5.40;;
19364;SDS011;9818;48.382;10.850;2023-09-07T11:03:37;9.53;;;5.57;;
19364;SDS011;9818;48.382;10.850;2023-09-07T11:06:06;9.07;;;6.00;;
19364;SDS011;9818;48.382;10.850;2023-09-07T11:08:37;10.33;;;5.93;;
19364;SDS011;9818;48.382;10.850;2023-09-07T11:11:07;12.63;;;6.47;;
19364;SDS011;9818;48.382;10.850;2023-09-07T11:13:39;10.03;;;7.03;;
19364;SDS011;9818;48.382;10.850;2023-09-07T11:16:09;11.97;;;7.40;;
19364;SDS011;9818;48.382;10.850;2023-09-07T11:18:38;11.27;;;6.90;;
19364;SDS011;9818;48.382;10.850;2023-09-07T11:21:09;12.70;;;6.93;;
19364;SDS011;9818;48.382;10.850;2023-09-07T11:23:38;8.47;;;5.83;;
19364;SDS011;9818;48.382;10.850;2023-09-07T11:26:08;8.47;;;6.40;;
19364;SDS011;9818;48.382;10.850;2023-09-07T11:28:40;8.93;;;5.97;;
19364;SDS011;9818;48.382;10.850;2023-09-07T11:31:09;7.13;;;6.00;;
19364;SDS011;9818;48.382;10.850;2023-09-07T11:33:38;8.57;;;5.33;;
19364;SDS011;9818;48.382;10.850;2023-09-07T11:36:09;6.70;;;5.40;;
19364;SDS011;9818;48.382;10.850;2023-09-07T11:38:38;5.63;;;5.03;;
19364;SDS011;9818;48.382;10.850;2023-09-07T11:41:11;6.13;;;5.40;;
19364;SDS011;9818;48.382;10.850;2023-09-07T11:43:43;5.40;;;4.87;;
19364;SDS011;9818;48.382;10.850;2023-09-07T11:46:11;8.30;;;5.70;;
19364;SDS011;9818;48.382;10.850;2023-09-07T11:48:40;9.57;;;5.47;;
19364;SDS011;9818;48.382;10.850;2023-09-07T11:51:09;20.40;;;6.43;;
19364;SDS011;9818;48.382;10.850;2023-09-07T11:53:38;22.77;;;6.47;;
19364;SDS011;9818;48.382;10.850;2023-09-07T11:56:06;15.67;;;6.83;;
19364;SDS011;9818;48.382;10.850;2023-09-07T11:58:35;14.63;;;6.47;;
19364;SDS011;9818;48.382;10.850;2023-09-07T12:01:07;12.27;;;5.97;;
19364;SDS011;9818;48.382;10.850;2023-09-07T12:03:35;13.40;;;5.47;;
19364;SDS011;9818;48.382;10.850;2023-09-07T12:06:04;12.10;;;5.83;;
19364;SDS011;9818;48.382;10.850;2023-09-07T12:08:33;9.57;;;5.80;;
19364;SDS011;9818;48.382;10.850;2023-09-07T12:11:02;10.17;;;5.53;;
19364;SDS011;9818;48.382;10.850;2023-09-07T12:13:30;14.73;;;6.23;;
19364;SDS011;9818;48.382;10.850;2023-09-07T12:15:59;11.33;;;6.23;;
19364;SDS011;9818;48.382;10.850;2023-09-07T12:18:31;8.93;;;5.47;;
19364;SDS011;9818;48.382;10.850;2023-09-07T12:21:00;7.67;;;5.03;;
19364;SDS011;9818;48.382;10.850;2023-09-07T12:23:29;9.17;;;4.90;;
19364;SDS011;9818;48.382;10.850;2023-09-07T12:25:58;6.90;;;4.97;;
19364;SDS011;9818;48.382;10.850;2023-09-07T12:28:26;7.60;;;5.00;;
19364;SDS011;9818;48.382;10.850;2023-09-07T12:30:56;6.27;;;4.97;;
19364;SDS011;9818;48.382;10.850;2023-09-07T12:33:24;7.90;;;5.03;;
19364;SDS011;9818;48.382;10.850;2023-09-07T12:35:58;5.27;;;4.77;;
19364;SDS011;9818;48.382;10.850;2023-09-07T12:38:27;7.93;;;5.60;;
19364;SDS011;9818;48.382;10.850;2023-09-07T12:40:55;6.03;;;5.30;;
19364;SDS011;9818;48.382;10.850;2023-09-07T12:43:24;8.20;;;5.17;;
19364;SDS011;9818;48.382;10.850;2023-09-07T12:45:53;5.53;;;4.93;;
19364;SDS011;9818;48.382;10.850;2023-09-07T12:48:22;7.33;;;4.77;;
19364;SDS011;9818;48.382;10.850;2023-09-07T12:50:51;5.50;;;5.00;;
19364;SDS011;9818;48.382;10.850;2023-09-07T12:53:22;5.53;;;4.70;;
19364;SDS011;9818;48.382;10.850;2023-09-07T12:55:52;5.60;;;5.00;;
19364;SDS011;9818;48.382;10.850;2023-09-07T12:58:21;4.93;;;4.53;;
19364;SDS011;9818;48.382;10.850;2023-09-07T13:00:50;5.10;;;4.60;;
19364;SDS011;9818;48.382;10.850;2023-09-07T13:03:19;8.20;;;4.93;;
19364;SDS011;9818;48.382;10.850;2023-09-07T13:05:48;5.50;;;5.00;;
19364;SDS011;9818;48.382;10.850;2023-09-07T13:08:17;4.63;;;4.23;;
19364;SDS011;9818;48.382;10.850;2023-09-07T13:10:48;7.60;;;4.93;;
19364;SDS011;9818;48.382;10.850;2023-09-07T13:13:17;5.37;;;4.73;;
19364;SDS011;9818;48.382;10.850;2023-09-07T13:15:47;5.07;;;4.57;;
19364;SDS011;9818;48.382;10.850;2023-09-07T13:18:16;5.40;;;4.70;;
19364;SDS011;9818;48.382;10.850;2023-09-07T13:20:44;5.07;;;4.60;;
19364;SDS011;9818;48.382;10.850;2023-09-07T13:23:15;5.10;;;4.53;;
19364;SDS011;9818;48.382;10.850;2023-09-07T13:25:43;8.07;;;4.63;;
19364;SDS011;9818;48.382;10.850;2023-09-07T13:28:15;4.90;;;4.50;;
19364;SDS011;9818;48.382;10.850;2023-09-07T13:30:43;5.30;;;4.70;;
19364;SDS011;9818;48.382;10.850;2023-09-07T13:33:12;5.57;;;4.80;;
19364;SDS011;9818;48.382;10.850;2023-09-07T13:35:41;5.00;;;4.50;;
19364;SDS011;9818;48.382;10.850;2023-09-07T13:38:10;5.00;;;4.60;;
19364;SDS011;9818;48.382;10.850;2023-09-07T13:40:39;4.90;;;4.50;;
19364;SDS011;9818;48.382;10.850;2023-09-07T13:43:08;5.53;;;4.27;;
19364;SDS011;9818;48.382;10.850;2023-09-07T13:45:39;7.60;;;4.40;;
19364;SDS011;9818;48.382;10.850;2023-09-07T13:48:09;4.77;;;4.37;;
19364;SDS011;9818;48.382;10.850;2023-09-07T13:50:38;5.60;;;4.60;;
19364;SDS011;9818;48.382;10.850;2023-09-07T13:53:08;6.13;;;4.57;;
19364;SDS011;9818;48.382;10.850;2023-09-07T13:55:37;4.97;;;4.47;;
19364;SDS011;9818;48.382;10.850;2023-09-07T13:58:07;4.93;;;4.40;;
19364;SDS011;9818;48.382;10.850;2023-09-07T14:00:36;7.93;;;4.53;;
19364;SDS011;9818;48.382;10.850;2023-09-07T14:03:07;4.63;;;4.13;;
19364;SDS011;9818;48.382;10.850;2023-09-07T14:05:36;4.53;;;4.07;;
19364;SDS011;9818;48.382;10.850;2023-09-07T14:08:05;5.43;;;4.30;;
19364;SDS011;9818;48.382;10.850;2023-09-07T14:10:34;5.57;;;4.37;;
19364;SDS011;9818;48.382;10.850;2023-09-07T14:13:03;5.70;;;4.40;;
19364;SDS011;9818;48.382;10.850;2023-09-07T14:15:31;4.30;;;3.90;;
19364;SDS011;9818;48.382;10.850;2023-09-07T14:18:03;7.83;;;4.50;;
19364;SDS011;9818;48.382;10.850;2023-09-07T14:20:33;4.50;;;4.10;;
19364;SDS011;9818;48.382;10.850;2023-09-07T14:23:02;4.63;;;4.10;;
19364;SDS011;9818;48.382;10.850;2023-09-07T14:25:31;4.63;;;3.93;;
19364;SDS011;9818;48.382;10.850;2023-09-07T14:27:59;4.93;;;4.10;;
19364;SDS011;9818;48.382;10.850;2023-09-07T14:30:28;5.33;;;4.37;;
19364;SDS011;9818;48.382;10.850;2023-09-07T14:32:57;4.77;;;4.27;;
19364;SDS011;9818;48.382;10.850;2023-09-07T14:35:28;6.83;;;4.40;;
19364;SDS011;9818;48.382;10.850;2023-09-07T14:37:57;5.07;;;4.43;;
19364;SDS011;9818;48.382;10.850;2023-09-07T14:40:26;5.63;;;4.83;;
19364;SDS011;9818;48.382;10.850;2023-09-07T14:42:55;6.67;;;4.43;;
19364;SDS011;9818;48.382;10.850;2023-09-07T14:45:25;6.13;;;3.97;;
19364;SDS011;9818;48.382;10.850;2023-09-07T14:47:54;4.73;;;4.10;;
19364;SDS011;9818;48.382;10.850;2023-09-07T14:50:22;4.70;;;4.17;;
19364;SDS011;9818;48.382;10.850;2023-09-07T14:52:54;4.97;;;4.07;;
19364;SDS011;9818;48.382;10.850;2023-09-07T14:55:22;5.03;;;4.27;;
19364;SDS011;9818;48.382;10.850;2023-09-07T14:57:51;4.37;;;3.97;;
19364;SDS011;9818;48.382;10.850;2023-09-07T15:00:20;4.47;;;4.07;;
19364;SDS011;9818;48.382;10.850;2023-09-07T15:02:51;4.63;;;4.00;;